sensor_id;sensor_type;location;lat;lon;timestamp;pressure;altitude;pressure_sealevel;temperature
66180;BMP280;52986;44.028;20.466;2023-08-06T00:01:42;96966.03;;;20.62
66180;BMP280;52986;44.028;20.466;2023-08-06T00:04:08;96965.44;;;20.56
66180;BMP280;52986;44.028;20.466;2023-08-06T00:06:33;96953.78;;;20.48
66180;BMP280;52986;44.028;20.466;2023-08-06T00:08:58;96947.84;;;20.29
66180;BMP280;52986;44.028;20.466;2023-08-06T00:11:24;96951.41;;;20.23
66180;BMP280;52986;44.028;20.466;2023-08-06T00:13:49;96957.47;;;20.30
66180;BMP280;52986;44.028;20.466;2023-08-06T00:16:15;96965.34;;;20.20
66180;BMP280;52986;44.028;20.466;2023-08-06T00:18:40;96963.97;;;20.27
66180;BMP280;52986;44.028;20.466;2023-08-06T00:21:06;96959.50;;;20.37
66180;BMP280;52986;44.028;20.466;2023-08-06T00:23:31;96953.59;;;20.46
66180;BMP280;52986;44.028;20.466;2023-08-06T00:25:57;96952.78;;;20.58
66180;BMP280;52986;44.028;20.466;2023-08-06T00:28:22;96962.84;;;20.50
66180;BMP280;52986;44.028;20.466;2023-08-06T00:30:54;96957.78;;;20.47
66180;BMP280;52986;44.028;20.466;2023-08-06T00:33:21;96951.22;;;20.42
66180;BMP280;52986;44.028;20.466;2023-08-06T00:35:47;96942.31;;;20.42
66180;BMP280;52986;44.028;20.466;2023-08-06T00:38:12;96939.19;;;20.38
66180;BMP280;52986;44.028;20.466;2023-08-06T00:40:37;96936.75;;;20.27
66180;BMP280;52986;44.028;20.466;2023-08-06T00:43:03;96942.84;;;20.19
66180;BMP280;52986;44.028;20.466;2023-08-06T00:45:29;96938.69;;;20.18
66180;BMP280;52986;44.028;20.466;2023-08-06T00:47:55;96941.22;;;20.16
66180;BMP280;52986;44.028;20.466;2023-08-06T00:50:21;96940.69;;;20.18
66180;BMP280;52986;44.028;20.466;2023-08-06T00:52:48;96942.94;;;20.27
66180;BMP280;52986;44.028;20.466;2023-08-06T00:55:15;96951.28;;;20.29
66180;BMP280;52986;44.028;20.466;2023-08-06T00:57:41;96955.31;;;20.36
66180;BMP280;52986;44.028;20.466;2023-08-06T01:00:07;96953.66;;;20.33
66180;BMP280;52986;44.028;20.466;2023-08-06T01:02:32;96949.88;;;20.36
66180;BMP280;52986;44.028;20.466;2023-08-06T01:04:58;96940.78;;;20.33
66180;BMP280;52986;44.028;20.466;2023-08-06T01:15:26;96955.53;;;20.38
66180;BMP280;52986;44.028;20.466;2023-08-06T01:17:53;96955.00;;;20.39
66180;BMP280;52986;44.028;20.466;2023-08-06T01:20:18;96944.44;;;20.36
66180;BMP280;52986;44.028;20.466;2023-08-06T01:22:44;96943.56;;;20.41
66180;BMP280;52986;44.028;20.466;2023-08-06T01:25:10;96951.34;;;20.37
66180;BMP280;52986;44.028;20.466;2023-08-06T01:27:48;96948.16;;;20.25
66180;BMP280;52986;44.028;20.466;2023-08-06T01:30:25;96929.63;;;20.16
66180;BMP280;52986;44.028;20.466;2023-08-06T01:32:55;96921.59;;;20.10
66180;BMP280;52986;44.028;20.466;2023-08-06T01:35:25;96910.13;;;20.04
66180;BMP280;52986;44.028;20.466;2023-08-06T01:37:51;96904.69;;;20.04
66180;BMP280;52986;44.028;20.466;2023-08-06T01:40:16;96897.34;;;19.92
66180;BMP280;52986;44.028;20.466;2023-08-06T01:42:42;96899.78;;;19.82
66180;BMP280;52986;44.028;20.466;2023-08-06T01:45:08;96888.50;;;19.78
66180;BMP280;52986;44.028;20.466;2023-08-06T01:47:34;96882.28;;;19.70
66180;BMP280;52986;44.028;20.466;2023-08-06T01:50:00;96880.41;;;19.65
66180;BMP280;52986;44.028;20.466;2023-08-06T01:52:26;96877.88;;;19.67
66180;BMP280;52986;44.028;20.466;2023-08-06T01:54:51;96876.84;;;19.70
66180;BMP280;52986;44.028;20.466;2023-08-06T01:57:16;96879.69;;;19.64
66180;BMP280;52986;44.028;20.466;2023-08-06T01:59:42;96873.94;;;19.68
66180;BMP280;52986;44.028;20.466;2023-08-06T02:02:07;96865.66;;;19.73
66180;BMP280;52986;44.028;20.466;2023-08-06T02:04:33;96863.75;;;19.89
66180;BMP280;52986;44.028;20.466;2023-08-06T02:06:58;96859.41;;;19.86
66180;BMP280;52986;44.028;20.466;2023-08-06T02:09:23;96860.06;;;19.79
66180;BMP280;52986;44.028;20.466;2023-08-06T02:11:49;96845.53;;;19.76
66180;BMP280;52986;44.028;20.466;2023-08-06T02:14:14;96849.00;;;19.77
66180;BMP280;52986;44.028;20.466;2023-08-06T02:16:39;96842.09;;;19.76
66180;BMP280;52986;44.028;20.466;2023-08-06T02:19:05;96868.63;;;19.62
66180;BMP280;52986;44.028;20.466;2023-08-06T02:21:30;96856.03;;;19.51
66180;BMP280;52986;44.028;20.466;2023-08-06T02:23:56;96857.47;;;19.52
66180;BMP280;52986;44.028;20.466;2023-08-06T02:26:21;96858.06;;;19.59
66180;BMP280;52986;44.028;20.466;2023-08-06T02:28:46;96865.19;;;19.62
66180;BMP280;52986;44.028;20.466;2023-08-06T02:31:12;96866.63;;;19.63
66180;BMP280;52986;44.028;20.466;2023-08-06T02:33:37;96861.63;;;19.53
66180;BMP280;52986;44.028;20.466;2023-08-06T02:36:03;96871.19;;;19.47
66180;BMP280;52986;44.028;20.466;2023-08-06T02:38:30;96875.28;;;19.40
66180;BMP280;52986;44.028;20.466;2023-08-06T02:40:55;96875.19;;;19.33
66180;BMP280;52986;44.028;20.466;2023-08-06T02:43:21;96867.50;;;19.24
66180;BMP280;52986;44.028;20.466;2023-08-06T02:45:46;96858.84;;;19.12
66180;BMP280;52986;44.028;20.466;2023-08-06T02:48:12;96862.00;;;19.16
66180;BMP280;52986;44.028;20.466;2023-08-06T02:50:38;96859.88;;;19.22
66180;BMP280;52986;44.028;20.466;2023-08-06T02:53:04;96863.31;;;19.23
66180;BMP280;52986;44.028;20.466;2023-08-06T02:55:30;96856.72;;;19.18
66180;BMP280;52986;44.028;20.466;2023-08-06T02:57:56;96859.16;;;19.22
66180;BMP280;52986;44.028;20.466;2023-08-06T03:00:21;96867.00;;;19.25
66180;BMP280;52986;44.028;20.466;2023-08-06T03:02:46;96865.50;;;19.24
66180;BMP280;52986;44.028;20.466;2023-08-06T03:05:12;96872.59;;;19.27
66180;BMP280;52986;44.028;20.466;2023-08-06T03:07:37;96868.69;;;19.36
66180;BMP280;52986;44.028;20.466;2023-08-06T03:10:03;96873.00;;;19.44
66180;BMP280;52986;44.028;20.466;2023-08-06T03:12:28;96873.50;;;19.43
66180;BMP280;52986;44.028;20.466;2023-08-06T03:14:54;96869.19;;;19.47
66180;BMP280;52986;44.028;20.466;2023-08-06T03:17:20;96863.66;;;19.53
66180;BMP280;52986;44.028;20.466;2023-08-06T03:19:45;96866.16;;;19.51
66180;BMP280;52986;44.028;20.466;2023-08-06T03:22:11;96867.50;;;19.58
66180;BMP280;52986;44.028;20.466;2023-08-06T03:24:36;96876.91;;;19.57
66180;BMP280;52986;44.028;20.466;2023-08-06T03:27:01;96872.06;;;19.63
66180;BMP280;52986;44.028;20.466;2023-08-06T03:29:27;96881.19;;;19.52
66180;BMP280;52986;44.028;20.466;2023-08-06T03:31:52;96874.91;;;19.57
66180;BMP280;52986;44.028;20.466;2023-08-06T03:34:18;96860.00;;;19.50
66180;BMP280;52986;44.028;20.466;2023-08-06T03:36:43;96868.41;;;19.60
66180;BMP280;52986;44.028;20.466;2023-08-06T03:39:09;96878.91;;;19.56
66180;BMP280;52986;44.028;20.466;2023-08-06T03:41:34;96874.06;;;19.62
66180;BMP280;52986;44.028;20.466;2023-08-06T03:43:59;96860.38;;;19.55
66180;BMP280;52986;44.028;20.466;2023-08-06T03:46:28;96858.31;;;19.47
66180;BMP280;52986;44.028;20.466;2023-08-06T03:48:53;96863.16;;;19.41
66180;BMP280;52986;44.028;20.466;2023-08-06T03:51:18;96867.31;;;19.42
66180;BMP280;52986;44.028;20.466;2023-08-06T03:53:44;96856.88;;;19.46
66180;BMP280;52986;44.028;20.466;2023-08-06T03:56:09;96856.69;;;19.44
66180;BMP280;52986;44.028;20.466;2023-08-06T03:58:34;96857.53;;;19.39
66180;BMP280;52986;44.028;20.466;2023-08-06T04:01:01;96858.69;;;19.31
66180;BMP280;52986;44.028;20.466;2023-08-06T04:03:26;96856.81;;;19.39
66180;BMP280;52986;44.028;20.466;2023-08-06T04:05:52;96858.13;;;19.45
66180;BMP280;52986;44.028;20.466;2023-08-06T04:08:17;96863.16;;;19.41
66180;BMP280;52986;44.028;20.466;2023-08-06T04:10:43;96864.59;;;19.42
66180;BMP280;52986;44.028;20.466;2023-08-06T04:13:08;96872.88;;;19.37
66180;BMP280;52986;44.028;20.466;2023-08-06T04:15:34;96875.47;;;19.42
66180;BMP280;52986;44.028;20.466;2023-08-06T04:17:59;96870.00;;;19.56
66180;BMP280;52986;44.028;20.466;2023-08-06T04:20:25;96873.53;;;19.64
66180;BMP280;52986;44.028;20.466;2023-08-06T04:22:50;96871.81;;;19.74
66180;BMP280;52986;44.028;20.466;2023-08-06T04:25:16;96870.53;;;19.96
66180;BMP280;52986;44.028;20.466;2023-08-06T04:27:46;96883.50;;;20.31
66180;BMP280;52986;44.028;20.466;2023-08-06T04:30:12;96891.25;;;20.55
66180;BMP280;52986;44.028;20.466;2023-08-06T04:32:39;96889.69;;;20.68
66180;BMP280;52986;44.028;20.466;2023-08-06T04:35:05;96893.13;;;20.68
66180;BMP280;52986;44.028;20.466;2023-08-06T04:37:30;96898.94;;;20.65
66180;BMP280;52986;44.028;20.466;2023-08-06T04:39:56;96893.53;;;20.72
66180;BMP280;52986;44.028;20.466;2023-08-06T04:42:21;96897.94;;;20.90
66180;BMP280;52986;44.028;20.466;2023-08-06T04:44:46;96900.38;;;21.02
66180;BMP280;52986;44.028;20.466;2023-08-06T04:47:12;96902.97;;;21.15
66180;BMP280;52986;44.028;20.466;2023-08-06T04:49:37;96908.63;;;21.40
66180;BMP280;52986;44.028;20.466;2023-08-06T04:52:03;96913.56;;;21.41
66180;BMP280;52986;44.028;20.466;2023-08-06T04:54:28;96907.56;;;21.35
66180;BMP280;52986;44.028;20.466;2023-08-06T04:56:54;96904.25;;;21.29
66180;BMP280;52986;44.028;20.466;2023-08-06T04:59:19;96895.34;;;21.21
66180;BMP280;52986;44.028;20.466;2023-08-06T05:01:45;96902.78;;;21.13
66180;BMP280;52986;44.028;20.466;2023-08-06T05:04:10;96904.97;;;21.14
66180;BMP280;52986;44.028;20.466;2023-08-06T05:06:35;96908.97;;;21.21
66180;BMP280;52986;44.028;20.466;2023-08-06T05:09:03;96915.13;;;21.21
66180;BMP280;52986;44.028;20.466;2023-08-06T05:11:28;96918.00;;;21.16
66180;BMP280;52986;44.028;20.466;2023-08-06T05:13:54;96916.50;;;21.00
66180;BMP280;52986;44.028;20.466;2023-08-06T05:16:19;96915.84;;;21.14
66180;BMP280;52986;44.028;20.466;2023-08-06T05:18:45;96926.63;;;21.35
66180;BMP280;52986;44.028;20.466;2023-08-06T05:21:10;96936.31;;;21.51
66180;BMP280;52986;44.028;20.466;2023-08-06T05:23:36;96934.16;;;21.80
66180;BMP280;52986;44.028;20.466;2023-08-06T05:26:01;96940.19;;;21.94
66180;BMP280;52986;44.028;20.466;2023-08-06T05:28:26;96949.09;;;22.17
66180;BMP280;52986;44.028;20.466;2023-08-06T05:30:52;96935.94;;;22.54
66180;BMP280;52986;44.028;20.466;2023-08-06T05:33:17;96944.22;;;22.86
66180;BMP280;52986;44.028;20.466;2023-08-06T05:35:43;96937.41;;;23.10
66180;BMP280;52986;44.028;20.466;2023-08-06T05:38:08;96947.72;;;23.19
66180;BMP280;52986;44.028;20.466;2023-08-06T05:40:34;96942.69;;;23.40
66180;BMP280;52986;44.028;20.466;2023-08-06T05:42:59;96943.50;;;23.26
66180;BMP280;52986;44.028;20.466;2023-08-06T05:45:25;96939.25;;;23.00
66180;BMP280;52986;44.028;20.466;2023-08-06T05:47:50;96937.84;;;22.91
66180;BMP280;52986;44.028;20.466;2023-08-06T05:50:17;96939.88;;;22.83
66180;BMP280;52986;44.028;20.466;2023-08-06T05:52:42;96938.75;;;22.86
66180;BMP280;52986;44.028;20.466;2023-08-06T05:55:08;96943.69;;;22.80
66180;BMP280;52986;44.028;20.466;2023-08-06T05:57:33;96948.03;;;22.91
66180;BMP280;52986;44.028;20.466;2023-08-06T05:59:58;96950.91;;;22.93
66180;BMP280;52986;44.028;20.466;2023-08-06T06:02:24;96947.50;;;22.85
66180;BMP280;52986;44.028;20.466;2023-08-06T06:04:49;96956.09;;;22.66
66180;BMP280;52986;44.028;20.466;2023-08-06T06:07:15;96940.97;;;22.80
66180;BMP280;52986;44.028;20.466;2023-08-06T06:09:40;96948.28;;;22.70
66180;BMP280;52986;44.028;20.466;2023-08-06T06:12:06;96949.38;;;22.67
66180;BMP280;52986;44.028;20.466;2023-08-06T06:14:31;96950.25;;;22.77
66180;BMP280;52986;44.028;20.466;2023-08-06T06:16:57;96955.47;;;22.98
66180;BMP280;52986;44.028;20.466;2023-08-06T06:19:22;96961.25;;;23.09
66180;BMP280;52986;44.028;20.466;2023-08-06T06:21:47;96957.34;;;22.80
66180;BMP280;52986;44.028;20.466;2023-08-06T06:24:13;96958.13;;;22.65
66180;BMP280;52986;44.028;20.466;2023-08-06T06:26:38;96963.59;;;22.43
66180;BMP280;52986;44.028;20.466;2023-08-06T06:29:04;96960.91;;;22.27
66180;BMP280;52986;44.028;20.466;2023-08-06T06:31:29;96970.38;;;22.26
66180;BMP280;52986;44.028;20.466;2023-08-06T06:33:55;96973.63;;;22.25
66180;BMP280;52986;44.028;20.466;2023-08-06T06:36:20;96965.81;;;22.06
66180;BMP280;52986;44.028;20.466;2023-08-06T06:38:46;96965.44;;;22.02
66180;BMP280;52986;44.028;20.466;2023-08-06T06:41:11;96963.63;;;22.20
66180;BMP280;52986;44.028;20.466;2023-08-06T06:43:37;96964.53;;;22.37
66180;BMP280;52986;44.028;20.466;2023-08-06T06:46:04;96967.22;;;22.75
66180;BMP280;52986;44.028;20.466;2023-08-06T06:48:32;96965.31;;;23.33
66180;BMP280;52986;44.028;20.466;2023-08-06T06:50:58;96957.84;;;23.66
66180;BMP280;52986;44.028;20.466;2023-08-06T06:53:24;96962.09;;;23.84
66180;BMP280;52986;44.028;20.466;2023-08-06T06:55:56;96965.50;;;23.93
66180;BMP280;52986;44.028;20.466;2023-08-06T06:58:22;96967.81;;;24.21
66180;BMP280;52986;44.028;20.466;2023-08-06T07:00:48;96966.25;;;24.70
66180;BMP280;52986;44.028;20.466;2023-08-06T07:03:14;96967.47;;;25.93
66180;BMP280;52986;44.028;20.466;2023-08-06T07:05:40;96969.63;;;27.29
66180;BMP280;52986;44.028;20.466;2023-08-06T07:08:09;96957.44;;;27.94
66180;BMP280;52986;44.028;20.466;2023-08-06T07:10:34;96964.16;;;28.45
66180;BMP280;52986;44.028;20.466;2023-08-06T07:12:59;96956.88;;;28.94
66180;BMP280;52986;44.028;20.466;2023-08-06T07:15:25;96966.38;;;29.73
66180;BMP280;52986;44.028;20.466;2023-08-06T07:17:50;96962.72;;;32.04
66180;BMP280;52986;44.028;20.466;2023-08-06T07:20:16;96969.31;;;33.67
66180;BMP280;52986;44.028;20.466;2023-08-06T07:22:41;96972.16;;;35.37
66180;BMP280;52986;44.028;20.466;2023-08-06T07:25:07;96963.72;;;35.35
66180;BMP280;52986;44.028;20.466;2023-08-06T07:27:33;96970.91;;;34.43
66180;BMP280;52986;44.028;20.466;2023-08-06T07:29:58;96968.19;;;33.41
66180;BMP280;52986;44.028;20.466;2023-08-06T07:32:24;96967.09;;;32.23
66180;BMP280;52986;44.028;20.466;2023-08-06T07:34:50;96965.13;;;31.00
66180;BMP280;52986;44.028;20.466;2023-08-06T07:37:18;96965.44;;;29.33
66180;BMP280;52986;44.028;20.466;2023-08-06T07:39:43;96973.16;;;28.79
66180;BMP280;52986;44.028;20.466;2023-08-06T07:42:10;96967.41;;;28.53
66180;BMP280;52986;44.028;20.466;2023-08-06T07:44:35;96987.47;;;29.80
66180;BMP280;52986;44.028;20.466;2023-08-06T07:47:01;96969.44;;;31.72
66180;BMP280;52986;44.028;20.466;2023-08-06T07:49:26;96959.59;;;31.69
66180;BMP280;52986;44.028;20.466;2023-08-06T07:51:52;96978.19;;;33.30
66180;BMP280;52986;44.028;20.466;2023-08-06T07:54:18;96991.25;;;36.33
66180;BMP280;52986;44.028;20.466;2023-08-06T07:56:43;96982.41;;;36.17
66180;BMP280;52986;44.028;20.466;2023-08-06T07:59:08;96973.94;;;37.12
66180;BMP280;52986;44.028;20.466;2023-08-06T08:01:34;96968.44;;;35.30
66180;BMP280;52986;44.028;20.466;2023-08-06T08:04:00;96965.19;;;33.19
66180;BMP280;52986;44.028;20.466;2023-08-06T08:06:25;96975.56;;;32.27
66180;BMP280;52986;44.028;20.466;2023-08-06T08:08:50;96970.47;;;31.24
66180;BMP280;52986;44.028;20.466;2023-08-06T08:11:17;96979.88;;;30.04
66180;BMP280;52986;44.028;20.466;2023-08-06T08:13:43;96982.44;;;29.18
66180;BMP280;52986;44.028;20.466;2023-08-06T08:16:09;96973.03;;;28.44
66180;BMP280;52986;44.028;20.466;2023-08-06T08:18:34;96977.28;;;27.71
66180;BMP280;52986;44.028;20.466;2023-08-06T08:20:59;96975.94;;;26.91
66180;BMP280;52986;44.028;20.466;2023-08-06T08:23:25;96973.63;;;26.30
66180;BMP280;52986;44.028;20.466;2023-08-06T08:25:50;96982.38;;;26.00
66180;BMP280;52986;44.028;20.466;2023-08-06T08:28:16;96985.09;;;25.90
66180;BMP280;52986;44.028;20.466;2023-08-06T08:30:41;96990.84;;;25.75
66180;BMP280;52986;44.028;20.466;2023-08-06T08:33:07;96984.72;;;25.40
66180;BMP280;52986;44.028;20.466;2023-08-06T08:35:33;96976.88;;;25.27
66180;BMP280;52986;44.028;20.466;2023-08-06T08:37:59;96997.00;;;25.12
66180;BMP280;52986;44.028;20.466;2023-08-06T08:40:31;96988.91;;;25.31
66180;BMP280;52986;44.028;20.466;2023-08-06T08:42:58;96982.13;;;25.69
66180;BMP280;52986;44.028;20.466;2023-08-06T08:45:26;96983.03;;;26.66
66180;BMP280;52986;44.028;20.466;2023-08-06T08:47:53;96978.00;;;28.57
66180;BMP280;52986;44.028;20.466;2023-08-06T08:50:19;96985.50;;;29.46
66180;BMP280;52986;44.028;20.466;2023-08-06T08:52:45;96982.69;;;29.80
66180;BMP280;52986;44.028;20.466;2023-08-06T08:55:13;96983.56;;;30.45
66180;BMP280;52986;44.028;20.466;2023-08-06T08:57:39;96997.38;;;32.48
66180;BMP280;52986;44.028;20.466;2023-08-06T09:00:05;96999.19;;;34.93
66180;BMP280;52986;44.028;20.466;2023-08-06T09:02:32;96961.56;;;36.68
66180;BMP280;52986;44.028;20.466;2023-08-06T09:04:59;96972.09;;;35.35
66180;BMP280;52986;44.028;20.466;2023-08-06T09:07:29;96959.53;;;35.14
66180;BMP280;52986;44.028;20.466;2023-08-06T09:09:56;96969.41;;;35.58
66180;BMP280;52986;44.028;20.466;2023-08-06T09:12:22;96966.03;;;35.84
66180;BMP280;52986;44.028;20.466;2023-08-06T09:14:47;96965.59;;;33.96
66180;BMP280;52986;44.028;20.466;2023-08-06T09:17:13;96962.25;;;31.94
66180;BMP280;52986;44.028;20.466;2023-08-06T09:19:42;96966.59;;;30.51
66180;BMP280;52986;44.028;20.466;2023-08-06T09:22:11;96964.13;;;29.34
66180;BMP280;52986;44.028;20.466;2023-08-06T09:24:39;96961.41;;;28.90
66180;BMP280;52986;44.028;20.466;2023-08-06T09:27:10;96949.84;;;28.70
66180;BMP280;52986;44.028;20.466;2023-08-06T09:29:40;96958.31;;;29.07
66180;BMP280;52986;44.028;20.466;2023-08-06T09:32:06;96954.75;;;29.16
66180;BMP280;52986;44.028;20.466;2023-08-06T09:34:31;96952.84;;;28.63
66180;BMP280;52986;44.028;20.466;2023-08-06T09:36:56;96963.94;;;28.20
66180;BMP280;52986;44.028;20.466;2023-08-06T09:39:27;96958.44;;;27.68
66180;BMP280;52986;44.028;20.466;2023-08-06T09:41:58;96973.00;;;27.18
66180;BMP280;52986;44.028;20.466;2023-08-06T09:44:24;96977.41;;;26.54
66180;BMP280;52986;44.028;20.466;2023-08-06T09:46:55;96978.91;;;25.99
66180;BMP280;52986;44.028;20.466;2023-08-06T09:49:27;96985.34;;;25.75
66180;BMP280;52986;44.028;20.466;2023-08-06T09:51:54;96995.97;;;25.98
66180;BMP280;52986;44.028;20.466;2023-08-06T09:54:24;96984.59;;;26.21
66180;BMP280;52986;44.028;20.466;2023-08-06T09:56:52;96978.69;;;26.82
66180;BMP280;52986;44.028;20.466;2023-08-06T09:59:18;96982.38;;;27.25
66180;BMP280;52986;44.028;20.466;2023-08-06T10:01:45;96977.47;;;27.54
66180;BMP280;52986;44.028;20.466;2023-08-06T10:04:12;96973.69;;;27.28
66180;BMP280;52986;44.028;20.466;2023-08-06T10:06:41;96968.13;;;26.97
66180;BMP280;52986;44.028;20.466;2023-08-06T10:09:07;96967.25;;;26.66
66180;BMP280;52986;44.028;20.466;2023-08-06T10:11:34;96969.78;;;25.87
66180;BMP280;52986;44.028;20.466;2023-08-06T10:14:11;96975.66;;;25.11
66180;BMP280;52986;44.028;20.466;2023-08-06T10:16:38;96983.25;;;24.51
66180;BMP280;52986;44.028;20.466;2023-08-06T10:19:05;96985.66;;;24.05
66180;BMP280;52986;44.028;20.466;2023-08-06T10:21:31;96983.78;;;23.90
66180;BMP280;52986;44.028;20.466;2023-08-06T10:23:57;96976.50;;;23.85
66180;BMP280;52986;44.028;20.466;2023-08-06T10:26:29;96971.81;;;24.79
66180;BMP280;52986;44.028;20.466;2023-08-06T10:28:55;96960.44;;;26.29
66180;BMP280;52986;44.028;20.466;2023-08-06T10:31:53;96972.34;;;26.50
66180;BMP280;52986;44.028;20.466;2023-08-06T10:34:19;96976.81;;;26.55
66180;BMP280;52986;44.028;20.466;2023-08-06T10:36:44;96982.28;;;26.84
66180;BMP280;52986;44.028;20.466;2023-08-06T10:39:13;96979.69;;;27.06
66180;BMP280;52986;44.028;20.466;2023-08-06T10:41:42;96970.81;;;29.20
66180;BMP280;52986;44.028;20.466;2023-08-06T10:44:09;96956.53;;;28.55
66180;BMP280;52986;44.028;20.466;2023-08-06T10:46:35;96947.59;;;27.70
66180;BMP280;52986;44.028;20.466;2023-08-06T10:49:01;96944.41;;;27.33
66180;BMP280;52986;44.028;20.466;2023-08-06T10:51:27;96942.66;;;26.87
66180;BMP280;52986;44.028;20.466;2023-08-06T10:53:53;96944.56;;;26.66
66180;BMP280;52986;44.028;20.466;2023-08-06T10:56:20;96940.53;;;26.47
66180;BMP280;52986;44.028;20.466;2023-08-06T10:58:50;96944.56;;;26.37
66180;BMP280;52986;44.028;20.466;2023-08-06T11:01:16;96951.72;;;27.09
66180;BMP280;52986;44.028;20.466;2023-08-06T11:03:42;96950.84;;;28.75
66180;BMP280;52986;44.028;20.466;2023-08-06T11:06:09;96940.03;;;28.34
66180;BMP280;52986;44.028;20.466;2023-08-06T11:08:36;96943.47;;;28.02
66180;BMP280;52986;44.028;20.466;2023-08-06T11:11:13;96935.34;;;27.83
66180;BMP280;52986;44.028;20.466;2023-08-06T11:13:48;96930.03;;;28.50
66180;BMP280;52986;44.028;20.466;2023-08-06T11:16:14;96944.56;;;28.63
66180;BMP280;52986;44.028;20.466;2023-08-06T11:18:41;96956.28;;;28.51
66180;BMP280;52986;44.028;20.466;2023-08-06T11:21:07;96962.56;;;28.31
66180;BMP280;52986;44.028;20.466;2023-08-06T11:23:34;96960.78;;;28.14
66180;BMP280;52986;44.028;20.466;2023-08-06T11:26:00;96953.03;;;28.22
66180;BMP280;52986;44.028;20.466;2023-08-06T11:28:25;96947.78;;;28.05
66180;BMP280;52986;44.028;20.466;2023-08-06T11:30:51;96944.09;;;27.38
66180;BMP280;52986;44.028;20.466;2023-08-06T11:33:24;96945.56;;;26.89
66180;BMP280;52986;44.028;20.466;2023-08-06T11:35:52;96941.69;;;26.25
66180;BMP280;52986;44.028;20.466;2023-08-06T11:38:18;96942.84;;;25.76
66180;BMP280;52986;44.028;20.466;2023-08-06T11:40:47;96946.03;;;25.36
66180;BMP280;52986;44.028;20.466;2023-08-06T11:43:13;96940.44;;;24.90
66180;BMP280;52986;44.028;20.466;2023-08-06T11:45:39;96949.00;;;24.59
66180;BMP280;52986;44.028;20.466;2023-08-06T11:48:05;96946.97;;;24.43
66180;BMP280;52986;44.028;20.466;2023-08-06T11:50:31;96936.25;;;24.20
66180;BMP280;52986;44.028;20.466;2023-08-06T11:52:59;96937.75;;;23.96
66180;BMP280;52986;44.028;20.466;2023-08-06T11:55:25;96932.13;;;23.69
66180;BMP280;52986;44.028;20.466;2023-08-06T11:57:51;96940.59;;;23.56
66180;BMP280;52986;44.028;20.466;2023-08-06T12:00:17;96941.97;;;23.40
66180;BMP280;52986;44.028;20.466;2023-08-06T12:02:45;96957.94;;;23.19
66180;BMP280;52986;44.028;20.466;2023-08-06T12:05:15;96967.00;;;22.81
66180;BMP280;52986;44.028;20.466;2023-08-06T12:07:43;96955.25;;;22.48
66180;BMP280;52986;44.028;20.466;2023-08-06T12:10:09;96971.66;;;22.33
66180;BMP280;52986;44.028;20.466;2023-08-06T12:12:35;96992.72;;;22.02
66180;BMP280;52986;44.028;20.466;2023-08-06T12:15:01;96985.47;;;21.97
66180;BMP280;52986;44.028;20.466;2023-08-06T12:17:27;96979.97;;;21.89
66180;BMP280;52986;44.028;20.466;2023-08-06T12:19:53;97001.28;;;21.91
66180;BMP280;52986;44.028;20.466;2023-08-06T12:22:18;96983.06;;;22.01
66180;BMP280;52986;44.028;20.466;2023-08-06T12:24:45;96987.66;;;22.21
66180;BMP280;52986;44.028;20.466;2023-08-06T12:27:11;96989.47;;;22.26
66180;BMP280;52986;44.028;20.466;2023-08-06T12:29:40;96997.84;;;22.28
66180;BMP280;52986;44.028;20.466;2023-08-06T12:32:05;97005.50;;;22.15
66180;BMP280;52986;44.028;20.466;2023-08-06T12:34:31;97006.94;;;22.16
66180;BMP280;52986;44.028;20.466;2023-08-06T12:36:56;96997.84;;;22.21
66180;BMP280;52986;44.028;20.466;2023-08-06T12:39:22;96995.09;;;22.06
66180;BMP280;52986;44.028;20.466;2023-08-06T12:41:47;96987.47;;;22.04
66180;BMP280;52986;44.028;20.466;2023-08-06T12:44:12;96978.22;;;22.15
66180;BMP280;52986;44.028;20.466;2023-08-06T12:46:38;96989.13;;;22.22
66180;BMP280;52986;44.028;20.466;2023-08-06T12:49:03;96984.00;;;22.26
66180;BMP280;52986;44.028;20.466;2023-08-06T12:51:29;96981.81;;;22.17
66180;BMP280;52986;44.028;20.466;2023-08-06T12:53:54;96987.28;;;22.40
66180;BMP280;52986;44.028;20.466;2023-08-06T12:56:20;96985.78;;;22.69
66180;BMP280;52986;44.028;20.466;2023-08-06T12:58:45;96985.53;;;22.98
66180;BMP280;52986;44.028;20.466;2023-08-06T13:01:10;97000.50;;;23.29
66180;BMP280;52986;44.028;20.466;2023-08-06T13:03:36;97008.97;;;23.08
66180;BMP280;52986;44.028;20.466;2023-08-06T13:06:01;97011.91;;;23.03
66180;BMP280;52986;44.028;20.466;2023-08-06T13:08:26;97018.69;;;22.94
66180;BMP280;52986;44.028;20.466;2023-08-06T13:10:52;97006.47;;;22.95
66180;BMP280;52986;44.028;20.466;2023-08-06T13:13:17;96990.00;;;23.10
66180;BMP280;52986;44.028;20.466;2023-08-06T13:15:43;96976.22;;;23.41
66180;BMP280;52986;44.028;20.466;2023-08-06T13:18:08;96977.25;;;23.85
66180;BMP280;52986;44.028;20.466;2023-08-06T13:20:34;96970.09;;;24.15
66180;BMP280;52986;44.028;20.466;2023-08-06T13:22:59;96982.81;;;24.20
66180;BMP280;52986;44.028;20.466;2023-08-06T13:25:27;96968.50;;;24.46
66180;BMP280;52986;44.028;20.466;2023-08-06T13:27:53;96979.00;;;24.57
66180;BMP280;52986;44.028;20.466;2023-08-06T13:30:20;96973.19;;;24.71
66180;BMP280;52986;44.028;20.466;2023-08-06T13:32:45;96975.66;;;25.11
66180;BMP280;52986;44.028;20.466;2023-08-06T13:35:10;96966.81;;;25.39
66180;BMP280;52986;44.028;20.466;2023-08-06T13:37:36;96984.41;;;25.63
66180;BMP280;52986;44.028;20.466;2023-08-06T13:40:01;96989.13;;;25.89
66180;BMP280;52986;44.028;20.466;2023-08-06T13:42:27;96996.09;;;25.90
66180;BMP280;52986;44.028;20.466;2023-08-06T13:44:54;96992.69;;;25.72
66180;BMP280;52986;44.028;20.466;2023-08-06T13:47:24;96999.75;;;25.39
66180;BMP280;52986;44.028;20.466;2023-08-06T13:49:50;97022.88;;;25.01
66180;BMP280;52986;44.028;20.466;2023-08-06T13:52:15;97002.84;;;24.64
66180;BMP280;52986;44.028;20.466;2023-08-06T13:54:41;96975.81;;;24.61
66180;BMP280;52986;44.028;20.466;2023-08-06T13:57:06;96973.19;;;24.71
66180;BMP280;52986;44.028;20.466;2023-08-06T13:59:32;96984.13;;;24.71